createdAt,value
2023-03-15T00:01:09.704Z,1.13
2023-03-15T00:04:12.457Z,0.90
2023-03-15T00:07:15.253Z,1.45
2023-03-15T00:10:19.706Z,1.00
2023-03-15T00:13:22.525Z,1.10
2023-03-15T00:16:27.168Z,1.00
2023-03-15T00:19:29.982Z,1.20
2023-03-15T00:22:32.793Z,1.20
2023-03-15T00:25:37.358Z,1.02
2023-03-15T00:28:40.453Z,1.13
2023-03-15T00:31:43.335Z,1.05
2023-03-15T00:34:49.178Z,1.25
2023-03-15T00:37:55.920Z,0.88
2023-03-15T00:41:00.172Z,1.20
2023-03-15T00:44:04.286Z,1.10
2023-03-15T00:47:07.178Z,0.98
2023-03-15T00:50:11.380Z,1.00
2023-03-15T00:53:14.214Z,1.10
2023-03-15T00:56:21.084Z,1.15
2023-03-15T00:59:23.882Z,1.20
2023-03-15T01:02:26.702Z,1.20
2023-03-15T01:05:29.601Z,0.93
2023-03-15T01:08:32.432Z,0.90
2023-03-15T01:11:37.326Z,1.05
2023-03-15T01:14:40.379Z,0.90
2023-03-15T01:17:44.169Z,1.13
2023-03-15T01:20:47.112Z,0.98
2023-03-15T01:23:50.014Z,1.02
2023-03-15T01:26:54.200Z,1.23
2023-03-15T01:29:57.048Z,1.10
2023-03-15T01:33:00.374Z,1.20
2023-03-15T01:36:05.136Z,1.10
2023-03-15T01:39:08.865Z,1.20
2023-03-15T01:42:18.904Z,1.35
2023-03-15T01:46:13.508Z,1.10
2023-03-15T01:49:22.842Z,0.95
2023-03-15T01:52:30.273Z,0.90
2023-03-15T01:55:41.990Z,1.10
2023-03-15T01:58:53.655Z,1.05
2023-03-15T02:01:58.183Z,0.82
2023-03-15T02:05:09.440Z,0.90
2023-03-15T02:08:16.847Z,1.20
2023-03-15T02:11:23.003Z,1.00
2023-03-15T02:14:28.886Z,0.98
2023-03-15T02:17:36.953Z,1.10
2023-03-15T02:20:47.550Z,1.02
2023-03-15T02:23:57.416Z,1.40
2023-03-15T02:27:00.387Z,1.23
2023-03-15T02:30:05.951Z,0.90
2023-03-15T02:33:15.390Z,1.00
2023-03-15T02:36:20.633Z,1.33
2023-03-15T02:39:23.784Z,0.85
2023-03-15T02:42:27.048Z,0.90
2023-03-15T02:45:36.316Z,1.00
2023-03-15T02:48:40.436Z,1.00
2023-03-15T02:51:43.220Z,1.10
2023-03-15T02:54:46.125Z,1.02
2023-03-15T02:57:49.516Z,1.20
2023-03-15T03:00:55.053Z,1.02
2023-03-15T03:03:58.424Z,0.98
2023-03-15T03:07:01.317Z,0.90
2023-03-15T03:10:13.460Z,0.90
2023-03-15T03:13:24.054Z,1.27
2023-03-15T03:16:28.499Z,0.88
2023-03-15T03:19:31.260Z,0.88
2023-03-15T03:22:34.483Z,1.17
2023-03-15T03:25:37.561Z,0.85
2023-03-15T03:28:41.683Z,1.08
2023-03-15T03:31:46.293Z,0.88
2023-03-15T03:34:49.423Z,0.90
2023-03-15T03:37:55.812Z,0.80
2023-03-15T03:41:04.480Z,0.80
2023-03-15T03:44:09.298Z,0.70
2023-03-15T03:47:15.295Z,1.30
2023-03-15T03:50:18.584Z,0.80
2023-03-15T03:53:21.834Z,0.80
2023-03-15T03:56:24.926Z,1.02
2023-03-15T03:59:27.832Z,0.70
2023-03-15T04:02:42.578Z,0.80
2023-03-15T04:05:46.272Z,0.90
2023-03-15T04:08:53.325Z,0.80
2023-03-15T04:12:02.715Z,0.93
2023-03-15T04:15:06.539Z,1.17
2023-03-15T04:18:10.845Z,0.90
2023-03-15T04:21:17.003Z,0.70
2023-03-15T04:24:21.495Z,0.80
2023-03-15T04:27:42.838Z,1.05
2023-03-15T04:31:14.665Z,1.20
2023-03-15T04:34:33.123Z,0.80
2023-03-15T04:38:05.595Z,0.90
2023-03-15T04:41:46.993Z,0.98
2023-03-15T04:45:01.194Z,0.80
2023-03-15T04:48:34.971Z,1.05
2023-03-15T04:51:57.967Z,0.70
2023-03-15T04:55:21.036Z,0.90
2023-03-15T04:58:52.383Z,0.82
2023-03-15T05:02:09.287Z,0.70
2023-03-15T05:05:24.827Z,1.35
2023-03-15T05:08:47.043Z,0.90
2023-03-15T05:12:11.494Z,0.80
2023-03-15T05:15:46.284Z,0.80
2023-03-15T05:18:57.139Z,0.95
2023-03-15T05:22:18.844Z,0.88
2023-03-15T05:25:29.199Z,1.13
2023-03-15T05:28:58.342Z,0.85
2023-03-15T05:32:19.594Z,0.80
2023-03-15T05:35:37.331Z,0.98
2023-03-15T05:38:53.411Z,0.80
2023-03-15T05:42:08.518Z,0.80
2023-03-15T05:45:34.951Z,1.10
2023-03-15T05:48:51.021Z,1.00
2023-03-15T05:52:11.280Z,0.70
2023-03-15T05:55:30.711Z,0.75
2023-03-15T05:58:51.923Z,0.70
2023-03-15T06:02:12.914Z,1.10
2023-03-15T06:05:23.378Z,0.90
2023-03-15T06:08:27.252Z,0.88
2023-03-15T06:11:32.579Z,0.93
2023-03-15T06:14:37.877Z,1.00
2023-03-15T06:17:43.621Z,1.00
2023-03-15T06:20:46.574Z,0.70
2023-03-15T06:23:50.288Z,0.80
2023-03-15T06:26:54.813Z,0.80
2023-03-15T06:29:59.828Z,0.80
2023-03-15T06:33:03.290Z,0.73
2023-03-15T06:36:07.865Z,0.88
2023-03-15T06:39:11.261Z,0.93
2023-03-15T06:42:14.615Z,0.90
2023-03-15T06:45:18.909Z,0.98
2023-03-15T06:48:23.508Z,1.08
2023-03-15T06:51:26.782Z,1.02
2023-03-15T06:54:29.638Z,1.15
2023-03-15T06:57:32.540Z,1.00
2023-03-15T07:00:36.677Z,1.23
2023-03-15T07:03:39.509Z,1.15
2023-03-15T07:06:42.363Z,1.15
2023-03-15T07:09:45.158Z,1.00
2023-03-15T07:12:48.134Z,0.88
2023-03-15T07:15:54.293Z,1.00
2023-03-15T07:18:59.369Z,1.05
2023-03-15T07:22:02.107Z,1.30
2023-03-15T07:25:06.357Z,1.10
2023-03-15T07:28:09.212Z,0.90
2023-03-15T07:31:13.629Z,1.10
2023-03-15T07:34:16.420Z,1.10
2023-03-15T07:37:19.423Z,1.20
2023-03-15T07:40:22.243Z,1.10
2023-03-15T07:43:25.177Z,1.50
2023-03-15T07:46:40.997Z,0.90
2023-03-15T07:49:43.847Z,1.10
2023-03-15T07:52:46.636Z,1.00
2023-03-15T07:55:50.027Z,1.10
2023-03-15T07:58:52.772Z,1.00
2023-03-15T08:01:57.068Z,1.20
2023-03-15T08:04:59.901Z,1.30
2023-03-15T08:08:03.136Z,0.80
2023-03-15T08:11:06.526Z,0.75
2023-03-15T08:14:09.282Z,0.82
2023-03-15T08:17:13.393Z,1.40
2023-03-15T08:20:17.889Z,0.70
2023-03-15T08:23:21.946Z,0.93
2023-03-15T08:26:24.777Z,1.00
2023-03-15T08:29:27.552Z,0.80
2023-03-15T08:32:31.741Z,1.10
2023-03-15T08:35:35.194Z,1.00
2023-03-15T08:38:38.706Z,1.20
2023-03-15T08:41:43.525Z,1.00
2023-03-15T08:44:46.364Z,1.00
2023-03-15T08:47:50.508Z,1.00
2023-03-15T08:50:53.290Z,1.20
2023-03-15T08:53:56.139Z,0.77
2023-03-15T08:56:58.918Z,1.10
2023-03-15T09:00:02.043Z,1.00
2023-03-15T09:03:06.409Z,0.90
2023-03-15T09:06:10.246Z,0.98
2023-03-15T09:09:17.479Z,0.80
2023-03-15T09:12:20.224Z,0.90
2023-03-15T09:15:22.984Z,1.10
2023-03-15T09:18:27.172Z,1.02
2023-03-15T09:21:29.923Z,0.95
2023-03-15T09:24:33.106Z,1.10
2023-03-15T09:27:36.063Z,1.00
2023-03-15T09:30:40.745Z,1.00
2023-03-15T09:33:46.625Z,0.90
2023-03-15T09:36:52.922Z,1.30
2023-03-15T09:39:55.735Z,1.20
2023-03-15T09:43:10.278Z,1.20
2023-03-15T09:46:27.714Z,1.25
2023-03-15T09:49:42.737Z,1.02
2023-03-15T09:52:51.551Z,0.98
2023-03-15T09:55:54.710Z,1.10
2023-03-15T09:59:01.706Z,1.00
2023-03-15T10:02:18.902Z,0.90
2023-03-15T10:05:27.432Z,1.05
2023-03-15T10:08:30.900Z,1.20
2023-03-15T10:11:42.951Z,2.13
2023-03-15T10:15:05.618Z,1.27
2023-03-15T10:18:31.527Z,1.30
2023-03-15T10:21:41.633Z,1.27
2023-03-15T10:24:50.960Z,1.73
2023-03-15T10:27:57.125Z,1.85
2023-03-15T10:31:03.166Z,1.90
2023-03-15T10:34:06.016Z,1.60
2023-03-15T10:37:11.150Z,1.20
2023-03-15T10:40:16.367Z,1.50
2023-03-15T10:43:21.985Z,1.65
2023-03-15T10:46:25.776Z,1.52
2023-03-15T10:49:35.244Z,1.20
2023-03-15T10:52:41.134Z,1.35
2023-03-15T10:55:45.692Z,1.92
2023-03-15T10:59:05.568Z,2.00
2023-03-15T11:02:22.469Z,2.20
2023-03-15T11:05:31.977Z,1.85
2023-03-15T11:08:41.243Z,2.35
2023-03-15T11:11:58.041Z,2.10
2023-03-15T11:15:04.196Z,1.80
2023-03-15T11:18:09.457Z,2.33
2023-03-15T11:21:15.581Z,2.03
2023-03-15T11:24:25.547Z,2.10
2023-03-15T11:27:31.876Z,2.05
2023-03-15T11:30:35.329Z,2.20
2023-03-15T11:33:44.384Z,2.20
2023-03-15T11:37:05.306Z,2.03
2023-03-15T11:40:17.498Z,2.42
2023-03-15T11:43:25.647Z,1.90
2023-03-15T11:46:33.238Z,2.00
2023-03-15T11:49:41.702Z,2.20
2023-03-15T11:52:49.537Z,2.05
2023-03-15T11:55:54.847Z,2.13
2023-03-15T11:59:06.342Z,1.75
2023-03-15T12:02:38.941Z,1.90
2023-03-15T12:05:48.968Z,1.83
2023-03-15T12:08:52.593Z,2.40
2023-03-15T12:12:00.820Z,1.90
2023-03-15T12:15:06.383Z,2.25
2023-03-15T12:18:17.323Z,2.72
2023-03-15T12:21:23.807Z,3.35
2023-03-15T12:24:29.285Z,2.08
2023-03-15T12:27:36.291Z,2.40
2023-03-15T12:30:41.978Z,2.22
2023-03-15T12:33:48.096Z,2.70
2023-03-15T12:36:54.224Z,2.30
2023-03-15T12:40:04.754Z,2.50
2023-03-15T12:43:09.356Z,2.20
2023-03-15T12:46:45.339Z,2.63
2023-03-15T12:49:48.289Z,2.10
2023-03-15T12:52:53.584Z,2.30
2023-03-15T12:56:08.126Z,2.47
2023-03-15T12:59:21.980Z,2.55
2023-03-15T13:02:42.740Z,2.53
2023-03-15T13:06:03.883Z,2.70
2023-03-15T13:09:19.226Z,2.65
2023-03-15T13:12:29.316Z,2.88
2023-03-15T13:15:40.626Z,2.63
2023-03-15T13:18:53.846Z,2.50
2023-03-15T13:22:15.104Z,2.55
2023-03-15T13:25:24.584Z,2.80
2023-03-15T13:28:37.936Z,2.90
2023-03-15T13:31:42.332Z,2.67
2023-03-15T13:34:47.514Z,2.83
2023-03-15T13:37:50.308Z,2.63
2023-03-15T13:40:53.576Z,3.08
2023-03-15T13:43:59.019Z,2.75
2023-03-15T13:47:03.389Z,2.53
2023-03-15T13:50:07.829Z,3.05
2023-03-15T13:53:19.698Z,3.15
2023-03-15T13:56:37.320Z,2.60
2023-03-15T13:59:47.979Z,2.88
2023-03-15T14:02:56.476Z,3.10
2023-03-15T14:05:59.726Z,2.83
2023-03-15T14:09:10.638Z,3.08
2023-03-15T14:12:19.810Z,2.75
2023-03-15T14:15:26.711Z,2.80
2023-03-15T14:18:42.540Z,3.03
2023-03-15T14:21:48.887Z,2.95
2023-03-15T14:24:53.512Z,2.72
2023-03-15T14:27:56.425Z,2.90
2023-03-15T14:31:00.969Z,3.08
2023-03-15T14:34:16.842Z,2.97
2023-03-15T14:37:31.757Z,2.70
2023-03-15T14:40:36.937Z,2.80
2023-03-15T14:43:39.805Z,2.95
2023-03-15T14:46:42.714Z,2.45
2023-03-15T14:49:47.460Z,2.83
2023-03-15T14:52:52.244Z,2.58
2023-03-15T14:55:55.019Z,2.63
2023-03-15T14:58:57.802Z,2.90
2023-03-15T15:02:02.870Z,2.97
2023-03-15T15:05:19.155Z,2.35
2023-03-15T15:08:23.222Z,2.42
2023-03-15T15:11:26.062Z,2.20
2023-03-15T15:14:28.856Z,2.15
2023-03-15T15:17:31.624Z,2.60
2023-03-15T15:20:35.794Z,2.60
2023-03-15T15:23:54.950Z,2.67
2023-03-15T15:27:00.077Z,2.50
2023-03-15T15:30:02.857Z,2.55
2023-03-15T15:33:05.816Z,2.50
2023-03-15T15:36:13.317Z,2.25
2023-03-15T15:39:22.970Z,2.13
2023-03-15T15:42:25.815Z,2.30
2023-03-15T15:45:28.847Z,2.25
2023-03-15T15:48:31.624Z,2.17
2023-03-15T15:51:38.560Z,2.17
2023-03-15T15:54:41.676Z,2.47
2023-03-15T15:57:46.860Z,2.00
2023-03-15T16:00:49.637Z,2.20
2023-03-15T16:03:52.627Z,2.22
2023-03-15T16:06:59.944Z,1.92
2023-03-15T16:10:03.733Z,2.00
2023-03-15T16:13:06.561Z,2.55
2023-03-15T16:16:14.371Z,2.28
2023-03-15T16:19:17.172Z,2.08
2023-03-15T16:22:23.311Z,2.05
2023-03-15T16:25:33.304Z,2.13
2023-03-15T16:28:36.148Z,2.20
2023-03-15T16:31:39.015Z,2.17
2023-03-15T16:34:41.878Z,2.30
2023-03-15T16:37:47.143Z,2.40
2023-03-15T16:40:49.948Z,2.00
2023-03-15T16:43:52.739Z,2.40
2023-03-15T16:46:55.505Z,2.10
2023-03-15T16:49:58.273Z,2.20
2023-03-15T16:53:05.117Z,1.98
2023-03-15T16:56:12.760Z,2.08
2023-03-15T16:59:17.743Z,2.28
2023-03-15T17:02:22.803Z,2.42
2023-03-15T17:05:26.733Z,2.13
2023-03-15T17:08:31.608Z,2.38
2023-03-15T17:11:34.418Z,2.40
2023-03-15T17:14:38.640Z,2.30
2023-03-15T17:17:41.467Z,2.78
2023-03-15T17:20:44.616Z,2.47
2023-03-15T17:23:49.538Z,2.70
2023-03-15T17:26:52.454Z,2.50
2023-03-15T17:29:55.271Z,2.70
2023-03-15T17:32:58.500Z,2.75
2023-03-15T17:36:04.664Z,2.90
2023-03-15T17:39:15.116Z,2.78
2023-03-15T17:42:18.925Z,3.45
2023-03-15T17:45:23.804Z,2.75
2023-03-15T17:48:26.594Z,3.00
2023-03-15T17:51:32.253Z,3.13
2023-03-15T17:54:36.464Z,2.90
2023-03-15T17:57:42.989Z,3.30
2023-03-15T18:00:49.461Z,3.38
2023-03-15T18:03:52.763Z,3.53
2023-03-15T18:06:55.752Z,3.20
2023-03-15T18:09:59.950Z,3.65
2023-03-15T18:13:03.863Z,3.20
2023-03-15T18:16:07.598Z,3.35
2023-03-15T18:19:10.703Z,3.40
2023-03-15T18:22:17.307Z,3.20
2023-03-15T18:25:23.647Z,3.20
2023-03-15T18:28:26.480Z,3.33
2023-03-15T18:31:29.843Z,3.95
2023-03-15T18:34:32.685Z,3.70
2023-03-15T18:37:35.451Z,4.43
2023-03-15T18:40:39.612Z,3.60
2023-03-15T18:43:42.424Z,3.67
2023-03-15T18:46:45.264Z,3.85
2023-03-15T18:49:49.538Z,3.63
2023-03-15T18:52:54.059Z,4.05
2023-03-15T18:55:58.164Z,3.80
2023-03-15T18:59:01.979Z,3.63
2023-03-15T19:02:04.975Z,4.10
2023-03-15T19:05:09.149Z,4.32
2023-03-15T19:08:11.951Z,3.58
2023-03-15T19:11:16.186Z,4.57
2023-03-15T19:14:19.302Z,4.20
2023-03-15T19:17:22.027Z,4.53
2023-03-15T19:20:24.836Z,4.47
2023-03-15T19:23:27.675Z,4.20
2023-03-15T19:26:31.888Z,4.30
2023-03-15T19:29:34.759Z,4.22
2023-03-15T19:32:37.623Z,4.63
2023-03-15T19:35:40.567Z,4.53
2023-03-15T19:38:43.973Z,4.38
2023-03-15T19:41:48.076Z,4.35
2023-03-15T19:44:50.882Z,4.65
2023-03-15T19:47:53.686Z,4.95
2023-03-15T19:50:56.552Z,4.60
2023-03-15T19:53:59.381Z,4.80
2023-03-15T19:57:03.586Z,5.05
2023-03-15T20:00:11.909Z,5.00
2023-03-15T20:03:14.689Z,4.97
2023-03-15T20:06:17.507Z,4.82
2023-03-15T20:09:20.770Z,5.00
2023-03-15T20:12:24.869Z,4.95
2023-03-15T20:15:29.379Z,5.97
2023-03-15T20:18:32.628Z,5.80
2023-03-15T20:21:35.936Z,5.45
2023-03-15T20:24:40.347Z,5.30
2023-03-15T20:27:44.869Z,5.20
2023-03-15T20:30:47.636Z,6.30
2023-03-15T20:33:51.746Z,5.68
2023-03-15T20:36:54.655Z,5.93
2023-03-15T20:39:57.867Z,5.28
2023-03-15T20:43:02.166Z,5.57
2023-03-15T20:46:05.391Z,5.38
2023-03-15T20:49:08.280Z,5.80
2023-03-15T20:52:11.173Z,6.10
2023-03-15T20:55:15.199Z,6.30
2023-03-15T20:58:19.448Z,6.55
2023-03-15T21:01:22.481Z,6.63
2023-03-15T21:04:26.119Z,6.13
2023-03-15T21:07:28.958Z,6.28
2023-03-15T21:10:31.817Z,6.15
2023-03-15T21:13:36.050Z,6.28
2023-03-15T21:16:38.999Z,6.28
2023-03-15T21:19:41.861Z,6.50
2023-03-15T21:22:44.643Z,6.30
2023-03-15T21:25:54.214Z,5.88
2023-03-15T21:28:58.360Z,6.20
2023-03-15T21:32:01.145Z,6.38
2023-03-15T21:35:05.049Z,6.57
2023-03-15T21:38:07.804Z,7.22
2023-03-15T21:41:11.450Z,7.20
2023-03-15T21:44:15.644Z,7.05
2023-03-15T21:47:18.429Z,6.30
2023-03-15T21:50:23.182Z,6.40
2023-03-15T21:53:26.269Z,6.80
2023-03-15T21:56:29.285Z,6.78
2023-03-15T21:59:33.694Z,7.45
2023-03-15T22:02:36.484Z,7.28
2023-03-15T22:05:39.264Z,7.22
2023-03-15T22:08:42.571Z,7.75
2023-03-15T22:11:45.364Z,7.45
2023-03-15T22:14:56.866Z,7.28
2023-03-15T22:18:07.513Z,6.80
2023-03-15T22:21:10.317Z,6.85
2023-03-15T22:24:13.162Z,7.80
2023-03-15T22:27:16.054Z,7.93
2023-03-15T22:30:20.299Z,7.65
2023-03-15T22:33:23.268Z,7.78
2023-03-15T22:36:26.142Z,7.63
2023-03-15T22:39:28.989Z,7.82
2023-03-15T22:42:31.800Z,7.35
2023-03-15T22:45:36.022Z,7.90
2023-03-15T22:48:38.962Z,7.45
2023-03-15T22:51:41.779Z,7.63
2023-03-15T22:54:44.591Z,8.45
2023-03-15T22:57:47.490Z,7.80
2023-03-15T23:00:51.864Z,7.55
2023-03-15T23:03:54.647Z,7.10
2023-03-15T23:06:58.148Z,7.03
2023-03-15T23:10:00.957Z,7.25
2023-03-15T23:13:04.164Z,7.72
2023-03-15T23:16:08.840Z,7.85
2023-03-15T23:19:13.443Z,6.88
2023-03-15T23:22:16.317Z,7.55
2023-03-15T23:25:22.246Z,6.95
2023-03-15T23:28:26.296Z,7.60
2023-03-15T23:31:30.507Z,6.95
2023-03-15T23:34:33.297Z,8.07
2023-03-15T23:37:36.409Z,7.50
2023-03-15T23:40:39.210Z,7.72
2023-03-15T23:43:42.061Z,6.78
2023-03-15T23:46:46.522Z,6.78
2023-03-15T23:49:49.456Z,7.03
2023-03-15T23:52:53.978Z,6.40
2023-03-15T23:55:56.737Z,6.20
2023-03-15T23:58:59.669Z,6.30
